createdAt,value
2017-10-09T00:00:00.069Z,0.00
2017-10-09T00:01:00.048Z,0.00
2017-10-09T00:02:00.021Z,0.00
2017-10-09T00:03:00.010Z,0.00
2017-10-09T00:03:59.977Z,0.00
2017-10-09T00:04:59.954Z,0.00
2017-10-09T00:05:59.928Z,0.00
2017-10-09T00:06:59.905Z,0.00
2017-10-09T00:07:59.891Z,0.00
2017-10-09T00:08:59.867Z,0.00
2017-10-09T00:09:59.850Z,0.00
2017-10-09T00:10:59.823Z,0.00
2017-10-09T00:11:59.802Z,0.00
2017-10-09T00:12:59.785Z,0.00
2017-10-09T00:13:59.761Z,0.00
2017-10-09T00:14:59.751Z,0.00
2017-10-09T00:15:59.713Z,0.00
2017-10-09T00:16:59.694Z,0.00
2017-10-09T00:17:59.677Z,0.00
2017-10-09T00:18:59.679Z,0.00
2017-10-09T00:19:59.627Z,0.00
2017-10-09T00:20:59.605Z,0.00
2017-10-09T00:21:59.591Z,0.00
2017-10-09T00:22:59.565Z,0.00
2017-10-09T00:23:59.543Z,0.00
2017-10-09T00:24:59.525Z,0.00
2017-10-09T00:25:59.507Z,0.00
2017-10-09T00:26:59.483Z,0.00
2017-10-09T00:27:59.468Z,0.00
2017-10-09T00:28:59.430Z,0.00
2017-10-09T00:29:59.406Z,0.00
2017-10-09T00:30:59.402Z,0.00
2017-10-09T00:31:59.368Z,0.00
2017-10-09T00:32:59.350Z,0.00
2017-10-09T00:33:59.320Z,0.00
2017-10-09T00:34:59.303Z,0.00
2017-10-09T00:35:59.281Z,0.00
2017-10-09T00:36:59.259Z,0.00
2017-10-09T00:37:59.238Z,0.00
2017-10-09T00:38:59.221Z,0.00
2017-10-09T00:39:59.199Z,0.00
2017-10-09T00:40:59.171Z,0.00
2017-10-09T00:41:59.154Z,0.00
2017-10-09T00:42:59.126Z,0.00
2017-10-09T00:43:59.103Z,0.00
2017-10-09T00:44:59.083Z,0.00
2017-10-09T00:45:59.068Z,0.00
2017-10-09T00:46:59.046Z,0.00
2017-10-09T00:47:59.016Z,0.00
2017-10-09T00:48:58.997Z,0.00
2017-10-09T00:49:58.972Z,0.00
2017-10-09T00:50:58.958Z,0.00
2017-10-09T00:51:58.945Z,0.00
2017-10-09T00:52:58.909Z,0.00
2017-10-09T00:53:58.901Z,0.00
2017-10-09T00:54:58.870Z,0.00
2017-10-09T00:55:58.845Z,0.00
2017-10-09T00:56:58.824Z,0.00
2017-10-09T00:57:58.808Z,0.00
2017-10-09T00:58:58.796Z,0.00
2017-10-09T00:59:58.758Z,0.00
2017-10-09T01:00:58.734Z,0.00
2017-10-09T01:01:58.714Z,0.00
2017-10-09T01:02:58.695Z,0.00
2017-10-09T01:03:58.698Z,0.00
2017-10-09T01:04:58.653Z,0.00
2017-10-09T01:05:58.629Z,0.00
2017-10-09T01:06:58.608Z,0.00
2017-10-09T01:07:58.587Z,0.00
2017-10-09T01:08:58.561Z,0.00
2017-10-09T01:09:58.545Z,0.00
2017-10-09T01:10:58.517Z,0.00
2017-10-09T01:11:58.499Z,0.00
2017-10-09T01:12:58.476Z,0.00
2017-10-09T01:13:58.454Z,0.00
2017-10-09T01:14:58.426Z,0.00
2017-10-09T01:16:00.119Z,0.00
2017-10-09T01:16:58.385Z,0.00
2017-10-09T01:17:58.365Z,0.00
2017-10-09T01:18:58.344Z,0.00
2017-10-09T01:19:58.322Z,0.00
2017-10-09T01:20:58.301Z,0.00
2017-10-09T01:21:58.280Z,0.00
2017-10-09T01:22:58.274Z,0.00
2017-10-09T01:23:58.233Z,0.00
2017-10-09T01:24:58.214Z,0.00
2017-10-09T01:25:58.189Z,0.00
2017-10-09T01:26:58.168Z,0.00
2017-10-09T01:27:58.156Z,0.00
2017-10-09T01:28:58.126Z,0.00
2017-10-09T01:29:58.106Z,0.00
2017-10-09T01:30:58.081Z,0.00
2017-10-09T01:31:58.063Z,0.00
2017-10-09T01:32:58.035Z,0.00
2017-10-09T01:33:58.028Z,0.00
2017-10-09T01:34:57.995Z,0.00
2017-10-09T01:35:57.977Z,0.00
2017-10-09T01:36:57.955Z,0.00
2017-10-09T01:37:57.929Z,0.00
2017-10-09T01:38:57.914Z,0.00
2017-10-09T01:39:57.884Z,0.00
2017-10-09T01:40:57.869Z,0.00
2017-10-09T01:41:57.845Z,0.00
2017-10-09T01:42:57.823Z,0.00
2017-10-09T01:43:57.794Z,0.00
2017-10-09T01:44:57.776Z,0.00
2017-10-09T01:45:57.756Z,0.00
2017-10-09T01:46:57.733Z,0.00
2017-10-09T01:47:57.716Z,0.00
2017-10-09T01:48:57.691Z,0.00
2017-10-09T01:49:57.664Z,0.00
2017-10-09T01:50:57.643Z,0.00
2017-10-09T01:51:57.641Z,0.00
2017-10-09T01:52:57.603Z,0.00
2017-10-09T01:53:57.582Z,0.00
2017-10-09T01:54:57.559Z,0.00
2017-10-09T01:55:57.540Z,0.00
2017-10-09T01:56:57.518Z,0.00
2017-10-09T01:57:57.492Z,0.00
2017-10-09T01:58:57.471Z,0.00
2017-10-09T01:59:57.451Z,0.00
2017-10-09T02:00:57.428Z,0.00
2017-10-09T02:01:57.414Z,0.00
2017-10-09T02:02:57.384Z,0.00
2017-10-09T02:03:57.364Z,0.00
2017-10-09T02:04:57.349Z,0.00
2017-10-09T02:05:57.322Z,0.00
2017-10-09T02:06:57.307Z,0.00
2017-10-09T02:07:57.276Z,0.00
2017-10-09T02:08:57.248Z,0.00
2017-10-09T02:09:57.232Z,0.00
2017-10-09T02:10:57.209Z,0.00
2017-10-09T02:11:57.181Z,0.00
2017-10-09T02:12:57.173Z,0.00
2017-10-09T02:13:57.146Z,0.00
2017-10-09T02:14:57.124Z,0.00
2017-10-09T02:15:57.098Z,0.00
2017-10-09T02:16:57.094Z,0.00
2017-10-09T02:17:57.057Z,0.00
2017-10-09T02:18:57.034Z,0.00
2017-10-09T02:19:57.019Z,0.00
2017-10-09T02:20:56.992Z,0.00
2017-10-09T02:21:56.971Z,0.00
2017-10-09T02:22:56.950Z,0.00
2017-10-09T02:23:56.921Z,0.00
2017-10-09T02:24:56.906Z,0.00
2017-10-09T02:25:56.878Z,0.00
2017-10-09T02:26:56.870Z,0.00
2017-10-09T02:27:56.839Z,0.00
2017-10-09T02:28:56.817Z,0.00
2017-10-09T02:29:56.792Z,0.00
2017-10-09T02:30:56.782Z,0.00
2017-10-09T02:31:56.753Z,0.00
2017-10-09T02:32:56.727Z,0.00
2017-10-09T02:33:56.706Z,0.00
2017-10-09T02:34:56.683Z,0.00
2017-10-09T02:35:56.663Z,0.00
2017-10-09T02:36:56.649Z,0.00
2017-10-09T02:37:56.628Z,0.00
2017-10-09T02:38:56.600Z,0.00
2017-10-09T02:39:56.578Z,0.00
2017-10-09T02:40:56.557Z,0.00
2017-10-09T02:41:56.539Z,0.00
2017-10-09T02:42:56.520Z,0.00
2017-10-09T02:43:56.497Z,0.00
2017-10-09T02:44:56.468Z,0.00
2017-10-09T02:45:56.446Z,0.00
2017-10-09T02:46:56.434Z,0.00
2017-10-09T02:47:56.399Z,0.00
2017-10-09T02:48:56.392Z,0.00
2017-10-09T02:49:56.364Z,0.00
2017-10-09T02:50:56.340Z,0.00
2017-10-09T02:51:56.328Z,0.00
2017-10-09T02:52:56.320Z,0.00
2017-10-09T02:53:56.281Z,0.00
2017-10-09T02:54:56.252Z,0.00
2017-10-09T02:55:56.233Z,0.00
2017-10-09T02:56:56.208Z,0.00
2017-10-09T02:57:56.187Z,0.00
2017-10-09T02:58:56.184Z,0.00
2017-10-09T02:59:56.155Z,0.00
2017-10-09T03:00:56.124Z,0.00
2017-10-09T03:01:56.107Z,0.00
2017-10-09T03:02:56.081Z,0.00
2017-10-09T03:03:56.055Z,0.00
2017-10-09T03:04:56.042Z,0.00
2017-10-09T03:05:56.013Z,0.00
2017-10-09T03:06:56.000Z,0.00
2017-10-09T03:07:55.969Z,0.00
2017-10-09T03:08:55.944Z,0.00
2017-10-09T03:09:55.937Z,0.00
2017-10-09T03:10:55.904Z,0.00
2017-10-09T03:11:55.891Z,0.00
2017-10-09T03:12:55.861Z,0.00
2017-10-09T03:13:55.842Z,0.00
2017-10-09T03:14:55.828Z,0.00
2017-10-09T03:15:55.799Z,0.00
2017-10-09T03:16:55.781Z,0.00
2017-10-09T03:17:55.756Z,0.00
2017-10-09T03:18:55.730Z,0.00
2017-10-09T03:19:55.712Z,0.00
2017-10-09T03:20:55.704Z,0.00
2017-10-09T03:21:55.666Z,0.00
2017-10-09T03:22:55.650Z,0.00
2017-10-09T03:23:55.638Z,0.00
2017-10-09T03:24:55.607Z,0.00
2017-10-09T03:25:55.577Z,0.00
2017-10-09T03:26:55.557Z,0.00
2017-10-09T03:27:55.540Z,0.00
2017-10-09T03:28:55.517Z,0.00
2017-10-09T03:29:55.499Z,0.00
2017-10-09T03:30:55.476Z,0.00
2017-10-09T03:31:55.448Z,0.00
2017-10-09T03:32:55.424Z,0.00
2017-10-09T03:33:55.408Z,0.00
2017-10-09T03:34:55.402Z,0.00
2017-10-09T03:35:55.371Z,0.00
2017-10-09T03:36:55.344Z,0.00
2017-10-09T03:37:55.316Z,0.00
2017-10-09T03:38:55.318Z,0.00
2017-10-09T03:39:55.278Z,0.00
2017-10-09T03:40:55.257Z,0.00
2017-10-09T03:41:55.262Z,0.00
2017-10-09T03:42:55.211Z,0.00
2017-10-09T03:43:55.193Z,0.00
2017-10-09T03:44:55.170Z,0.00
2017-10-09T03:45:55.146Z,0.00
2017-10-09T03:46:55.128Z,0.00
2017-10-09T03:47:55.116Z,0.00
2017-10-09T03:48:55.087Z,0.00
2017-10-09T03:49:55.076Z,0.00
2017-10-09T03:50:55.046Z,0.00
2017-10-09T03:51:55.016Z,0.00
2017-10-09T03:52:55.010Z,0.00
2017-10-09T03:53:54.983Z,0.00
2017-10-09T03:54:54.954Z,0.00
2017-10-09T03:55:54.933Z,0.00
2017-10-09T03:56:54.907Z,0.00
2017-10-09T03:57:54.889Z,0.00
2017-10-09T03:58:54.872Z,0.00
2017-10-09T03:59:54.845Z,0.00
2017-10-09T04:00:54.835Z,0.00
2017-10-09T04:01:54.805Z,0.00
2017-10-09T04:02:54.780Z,0.00
2017-10-09T04:03:54.763Z,0.00
2017-10-09T04:04:54.734Z,0.00
2017-10-09T04:05:54.721Z,0.00
2017-10-09T04:06:54.699Z,0.00
2017-10-09T04:07:54.671Z,0.00
2017-10-09T04:08:54.654Z,0.00
2017-10-09T04:09:54.640Z,0.00
2017-10-09T04:10:54.617Z,0.00
2017-10-09T04:11:54.590Z,0.00
2017-10-09T04:12:54.565Z,0.00
2017-10-09T04:13:54.547Z,0.00
2017-10-09T04:14:54.527Z,0.00
2017-10-09T04:15:54.501Z,0.00
2017-10-09T04:16:54.477Z,0.00
2017-10-09T04:17:54.454Z,0.00
2017-10-09T04:18:54.429Z,0.00
2017-10-09T04:19:54.419Z,0.00
2017-10-09T04:20:54.402Z,0.00
2017-10-09T04:21:54.381Z,0.00
2017-10-09T04:22:54.352Z,0.00
2017-10-09T04:23:54.323Z,0.00
2017-10-09T04:24:54.315Z,0.00
2017-10-09T04:25:54.284Z,0.00
2017-10-09T04:26:54.265Z,0.00
2017-10-09T04:27:54.245Z,0.00
2017-10-09T04:28:54.239Z,0.00
2017-10-09T04:29:54.190Z,0.00
2017-10-09T04:30:54.181Z,0.00
2017-10-09T04:31:54.677Z,0.00
2017-10-09T04:32:54.131Z,0.00
2017-10-09T04:33:54.114Z,0.00
2017-10-09T04:34:54.094Z,0.00
2017-10-09T04:35:54.068Z,0.00
2017-10-09T04:36:54.045Z,0.00
2017-10-09T04:37:54.030Z,0.00
2017-10-09T04:38:54.007Z,0.00
2017-10-09T04:39:54.010Z,0.00
2017-10-09T04:40:53.969Z,0.00
2017-10-09T04:41:53.949Z,0.00
2017-10-09T04:42:53.946Z,0.00
2017-10-09T04:43:53.900Z,0.00
2017-10-09T04:44:53.870Z,0.00
2017-10-09T04:45:53.853Z,0.00
2017-10-09T04:46:53.838Z,0.00
2017-10-09T04:47:53.807Z,0.00
2017-10-09T04:48:53.803Z,0.00
2017-10-09T04:49:53.770Z,0.00
2017-10-09T04:50:53.767Z,0.00
2017-10-09T04:51:53.724Z,0.00
2017-10-09T04:52:53.694Z,0.00
2017-10-09T04:53:53.716Z,0.00
2017-10-09T04:54:53.653Z,0.00
2017-10-09T04:55:53.651Z,0.00
2017-10-09T04:56:53.617Z,0.00
2017-10-09T04:57:53.594Z,0.00
2017-10-09T04:58:53.579Z,0.00
2017-10-09T04:59:53.547Z,0.00
2017-10-09T05:00:53.542Z,0.00
2017-10-09T05:01:53.524Z,0.00
2017-10-09T05:02:53.483Z,0.00
2017-10-09T05:03:53.468Z,0.00
2017-10-09T05:04:53.450Z,0.00
2017-10-09T05:05:53.419Z,0.00
2017-10-09T05:06:53.401Z,0.00
2017-10-09T05:07:53.391Z,4.00
2017-10-09T05:08:53.381Z,0.00
2017-10-09T05:09:53.512Z,0.00
2017-10-09T05:10:53.462Z,0.00
2017-10-09T05:12:04.185Z,4.00
2017-10-09T05:12:53.348Z,4.00
2017-10-09T05:13:53.315Z,4.00
2017-10-09T05:14:53.227Z,8.00
2017-10-09T05:15:53.218Z,8.00
2017-10-09T05:16:53.195Z,8.00
2017-10-09T05:17:53.165Z,8.00
2017-10-09T05:18:53.134Z,12.00
2017-10-09T05:19:53.119Z,8.00
2017-10-09T05:20:53.099Z,16.00
2017-10-09T05:21:53.083Z,16.00
2017-10-09T05:22:53.081Z,16.00
2017-10-09T05:23:53.038Z,20.00
2017-10-09T05:24:53.032Z,24.00
2017-10-09T05:25:53.005Z,28.00
2017-10-09T05:26:52.963Z,32.00
2017-10-09T05:27:52.964Z,36.00
2017-10-09T05:28:52.962Z,40.00
2017-10-09T05:29:52.897Z,44.00
2017-10-09T05:30:52.885Z,48.00
2017-10-09T05:31:52.871Z,56.00
2017-10-09T05:32:52.847Z,60.00
2017-10-09T05:33:52.835Z,68.00
2017-10-09T05:34:52.852Z,76.00
2017-10-09T05:35:52.771Z,84.00
2017-10-09T05:36:52.781Z,92.00
2017-10-09T05:37:52.725Z,100.00
2017-10-09T05:38:52.718Z,108.00
2017-10-09T05:39:52.723Z,116.00
2017-10-09T05:40:52.675Z,124.00
2017-10-09T05:41:52.672Z,136.00
2017-10-09T05:42:52.620Z,148.00
2017-10-09T05:43:52.608Z,168.00
2017-10-09T05:44:52.582Z,180.00
2017-10-09T05:45:52.562Z,188.00
2017-10-09T05:46:52.538Z,196.00
2017-10-09T05:47:52.524Z,212.00
2017-10-09T05:48:52.505Z,224.00
2017-10-09T05:49:52.514Z,236.00
2017-10-09T05:50:52.452Z,256.00
2017-10-09T05:51:52.469Z,272.00
2017-10-09T05:52:52.433Z,284.00
2017-10-09T05:53:52.423Z,288.00
2017-10-09T05:54:52.373Z,292.00
2017-10-09T05:55:52.371Z,324.00
2017-10-09T05:56:52.363Z,368.00
2017-10-09T05:57:52.298Z,396.00
2017-10-09T05:58:52.315Z,400.00
2017-10-09T05:59:52.278Z,416.00
2017-10-09T06:00:52.271Z,448.00
2017-10-09T06:01:52.226Z,464.00
2017-10-09T06:02:52.204Z,476.00
2017-10-09T06:03:52.197Z,508.00
2017-10-09T06:04:52.184Z,532.00
2017-10-09T06:05:52.153Z,560.00
2017-10-09T06:06:52.106Z,596.00
2017-10-09T06:07:52.105Z,632.00
2017-10-09T06:08:52.068Z,668.00
2017-10-09T06:09:52.083Z,688.00
2017-10-09T06:10:52.027Z,708.00
2017-10-09T06:11:51.997Z,744.00
2017-10-09T06:12:51.984Z,780.00
2017-10-09T06:13:51.958Z,820.00
2017-10-09T06:14:51.955Z,876.00
2017-10-09T06:15:51.935Z,940.00
2017-10-09T06:16:51.913Z,1008.00
2017-10-09T06:17:51.884Z,1132.00
2017-10-09T06:18:51.862Z,1252.00
2017-10-09T06:19:51.842Z,1400.00
2017-10-09T06:20:51.812Z,1484.00
2017-10-09T06:21:51.796Z,1556.00
2017-10-09T06:22:51.773Z,1632.00
2017-10-09T06:23:51.741Z,1728.00
2017-10-09T06:24:51.720Z,1744.00
2017-10-09T06:25:51.727Z,1828.00
2017-10-09T06:26:51.699Z,1860.00
2017-10-09T06:27:51.672Z,1968.00
2017-10-09T06:28:51.669Z,2032.00
2017-10-09T06:29:51.659Z,2024.00
2017-10-09T06:30:51.610Z,1924.00
2017-10-09T06:31:51.577Z,1980.00
2017-10-09T06:32:51.556Z,2112.00
2017-10-09T06:33:51.528Z,2240.00
2017-10-09T06:34:51.541Z,2276.00
2017-10-09T06:35:51.512Z,2420.00
2017-10-09T06:36:51.466Z,2904.00
2017-10-09T06:37:51.485Z,3208.00
2017-10-09T06:38:51.440Z,3588.00
2017-10-09T06:39:51.412Z,3596.00
2017-10-09T06:40:51.379Z,3508.00
2017-10-09T06:41:51.396Z,3384.00
2017-10-09T06:42:51.363Z,3316.00
2017-10-09T06:43:51.323Z,3280.00
2017-10-09T06:44:51.308Z,3164.00
2017-10-09T06:45:51.286Z,3444.00
2017-10-09T06:46:51.263Z,3620.00
2017-10-09T06:47:51.236Z,3636.00
2017-10-09T06:48:51.211Z,3992.00
2017-10-09T06:49:51.207Z,4472.00
2017-10-09T06:50:51.196Z,4944.00
2017-10-09T06:51:51.172Z,4836.00
2017-10-09T06:52:51.126Z,4608.00
2017-10-09T06:53:51.105Z,4548.00
2017-10-09T06:54:51.094Z,4836.00
2017-10-09T06:55:51.072Z,4560.00
2017-10-09T06:56:51.038Z,3560.00
2017-10-09T06:57:51.024Z,3328.00
2017-10-09T06:58:51.008Z,3596.00
2017-10-09T06:59:50.986Z,4384.00
2017-10-09T07:00:50.977Z,5896.00
2017-10-09T07:01:50.946Z,5416.00
2017-10-09T07:02:50.927Z,6460.00
2017-10-09T07:03:50.908Z,5612.00
2017-10-09T07:04:50.874Z,5808.00
2017-10-09T07:05:50.866Z,5324.00
2017-10-09T07:06:50.839Z,4812.00
2017-10-09T07:07:50.826Z,5128.00
2017-10-09T07:08:50.804Z,4584.00
2017-10-09T07:09:50.793Z,4792.00
2017-10-09T07:10:50.782Z,5468.00
2017-10-09T07:11:50.748Z,5604.00
2017-10-09T07:12:50.712Z,4820.00
2017-10-09T07:13:50.698Z,4540.00
2017-10-09T07:14:50.692Z,4996.00
2017-10-09T07:15:50.660Z,5280.00
2017-10-09T07:16:50.642Z,5092.00
2017-10-09T07:17:50.627Z,5036.00
2017-10-09T07:18:50.609Z,5188.00
2017-10-09T07:19:50.580Z,5372.00
2017-10-09T07:20:50.554Z,5716.00
2017-10-09T07:21:50.539Z,6260.00
2017-10-09T07:22:50.506Z,6852.00
2017-10-09T07:23:50.498Z,7228.00
2017-10-09T07:24:50.483Z,7500.00
2017-10-09T07:25:50.466Z,7752.00
2017-10-09T07:26:50.429Z,7692.00
2017-10-09T07:27:50.423Z,7576.00
2017-10-09T07:28:50.388Z,7412.00
2017-10-09T07:29:50.376Z,5940.00
2017-10-09T07:30:50.358Z,6224.00
2017-10-09T07:31:50.341Z,6700.00
2017-10-09T07:32:50.310Z,6552.00
2017-10-09T07:33:50.300Z,6096.00
2017-10-09T07:34:50.286Z,6728.00
2017-10-09T07:35:50.255Z,8012.00
2017-10-09T07:36:50.266Z,8176.00
2017-10-09T07:37:50.213Z,8184.00
2017-10-09T07:38:50.221Z,8392.00
2017-10-09T07:39:50.166Z,8776.00
2017-10-09T07:40:50.156Z,9032.00
2017-10-09T07:41:50.130Z,8648.00
2017-10-09T07:42:50.111Z,8768.00
2017-10-09T07:43:50.092Z,8900.00
2017-10-09T07:44:50.092Z,9572.00
2017-10-09T07:45:50.053Z,10344.00
2017-10-09T07:46:50.042Z,11268.00
2017-10-09T07:47:50.010Z,12704.00
2017-10-09T07:48:50.005Z,11324.00
2017-10-09T07:49:49.991Z,18432.00
2017-10-09T07:50:49.952Z,13540.00
2017-10-09T07:51:49.934Z,22336.00
2017-10-09T07:52:49.930Z,16832.00
2017-10-09T07:53:49.890Z,15104.00
2017-10-09T07:54:49.880Z,18784.00
2017-10-09T07:55:49.866Z,18464.00
2017-10-09T07:56:49.842Z,8496.00
2017-10-09T07:57:49.825Z,9004.00
2017-10-09T07:58:49.799Z,10588.00
2017-10-09T07:59:49.778Z,10232.00
2017-10-09T08:00:49.767Z,10236.00
2017-10-09T08:01:49.760Z,13144.00
2017-10-09T08:02:49.728Z,13976.00
2017-10-09T08:03:49.718Z,15040.00
2017-10-09T08:04:49.719Z,13892.00
2017-10-09T08:05:49.681Z,11188.00
2017-10-09T08:06:49.660Z,13732.00
2017-10-09T08:07:49.659Z,12444.00
2017-10-09T08:08:49.645Z,14720.00
2017-10-09T08:09:49.594Z,10880.00
2017-10-09T08:10:49.585Z,10932.00
2017-10-09T08:11:49.570Z,10444.00
2017-10-09T08:12:49.545Z,10576.00
2017-10-09T08:13:49.531Z,11044.00
2017-10-09T08:14:49.509Z,11488.00
2017-10-09T08:15:49.510Z,10356.00
2017-10-09T08:16:49.481Z,11576.00
2017-10-09T08:17:49.458Z,11536.00
2017-10-09T08:18:49.443Z,14028.00
2017-10-09T08:19:49.418Z,13872.00
2017-10-09T08:20:49.401Z,18784.00
2017-10-09T08:21:49.382Z,21760.00
2017-10-09T08:22:49.375Z,23648.00
2017-10-09T08:23:49.349Z,27616.00
2017-10-09T08:24:49.339Z,29600.00
2017-10-09T08:25:49.321Z,32736.00
2017-10-09T08:26:49.303Z,32672.00
2017-10-09T08:27:49.297Z,32512.00
2017-10-09T08:28:49.267Z,33504.00
2017-10-09T08:29:49.252Z,29024.00
2017-10-09T08:30:49.236Z,25376.00
2017-10-09T08:31:49.224Z,34976.00
2017-10-09T08:32:49.204Z,38784.00
2017-10-09T08:33:49.192Z,44320.00
2017-10-09T08:34:49.177Z,41824.00
2017-10-09T08:35:49.151Z,17024.00
2017-10-09T08:36:49.142Z,36896.00
2017-10-09T08:37:49.143Z,37280.00
2017-10-09T08:38:49.109Z,37824.00
2017-10-09T08:39:49.096Z,36384.00
2017-10-09T08:40:49.089Z,32352.00
2017-10-09T08:41:49.090Z,32160.00
2017-10-09T08:42:49.056Z,33824.00
2017-10-09T08:43:49.053Z,33024.00
2017-10-09T08:44:49.030Z,38400.00
2017-10-09T08:45:49.024Z,36320.00
2017-10-09T08:46:49.019Z,38624.00
2017-10-09T08:47:48.990Z,36832.00
2017-10-09T08:48:48.990Z,40160.00
2017-10-09T08:49:48.982Z,41568.00
2017-10-09T08:50:48.956Z,41952.00
2017-10-09T08:51:48.954Z,43520.00
2017-10-09T08:52:48.937Z,41216.00
2017-10-09T08:53:48.917Z,41344.00
2017-10-09T08:54:48.907Z,37216.00
2017-10-09T08:55:48.921Z,32960.00
2017-10-09T08:56:48.898Z,28608.00
2017-10-09T08:57:48.875Z,29568.00
2017-10-09T08:58:48.853Z,25920.00
2017-10-09T08:59:48.856Z,25696.00
2017-10-09T09:00:48.850Z,30240.00
2017-10-09T09:01:48.820Z,31712.00
2017-10-09T09:02:48.815Z,37472.00
2017-10-09T09:03:48.801Z,27616.00
2017-10-09T09:04:48.800Z,27168.00
2017-10-09T09:05:48.799Z,28256.00
2017-10-09T09:06:48.766Z,52736.00
2017-10-09T09:07:48.772Z,51584.00
2017-10-09T09:08:48.761Z,52288.00
2017-10-09T09:09:48.740Z,28736.00
2017-10-09T09:10:48.726Z,10212.00
2017-10-09T09:11:48.707Z,10760.00
2017-10-09T09:12:48.706Z,15392.00
2017-10-09T09:13:48.691Z,44768.00
2017-10-09T09:14:48.683Z,48960.00
2017-10-09T09:15:48.663Z,26304.00
2017-10-09T09:16:48.678Z,6696.00
2017-10-09T09:17:48.666Z,5192.00
2017-10-09T09:18:48.648Z,4704.00
2017-10-09T09:19:48.657Z,4400.00
2017-10-09T09:20:48.625Z,4488.00
2017-10-09T09:21:48.603Z,5308.00
2017-10-09T09:22:48.596Z,5196.00
2017-10-09T09:23:48.582Z,4572.00
2017-10-09T09:24:48.577Z,3340.00
2017-10-09T09:25:48.582Z,3356.00
2017-10-09T09:26:48.541Z,3768.00
2017-10-09T09:27:48.535Z,3400.00
2017-10-09T09:28:48.527Z,2984.00
2017-10-09T09:29:48.511Z,2768.00
2017-10-09T09:30:48.496Z,2828.00
2017-10-09T09:31:48.492Z,3052.00
2017-10-09T09:32:48.471Z,2940.00
2017-10-09T09:33:48.477Z,3020.00
2017-10-09T09:34:48.438Z,3084.00
2017-10-09T09:35:48.445Z,3256.00
2017-10-09T09:36:48.451Z,3616.00
2017-10-09T09:37:48.394Z,4120.00
2017-10-09T09:38:48.391Z,4568.00
2017-10-09T09:39:48.376Z,5256.00
2017-10-09T09:40:48.366Z,5760.00
2017-10-09T09:41:48.351Z,7392.00
2017-10-09T09:42:48.571Z,10632.00
2017-10-09T09:43:48.310Z,54144.00
2017-10-09T09:44:48.305Z,26400.00
2017-10-09T09:45:48.280Z,62336.00
2017-10-09T09:46:48.278Z,20160.00
2017-10-09T09:47:48.292Z,14572.00
2017-10-09T09:48:48.244Z,13172.00
2017-10-09T09:49:48.228Z,11792.00
2017-10-09T09:50:48.218Z,17280.00
2017-10-09T09:51:48.194Z,10448.00
2017-10-09T09:52:48.184Z,7764.00
2017-10-09T09:53:48.167Z,5724.00
2017-10-09T09:54:48.164Z,4948.00
2017-10-09T09:55:48.138Z,4208.00
2017-10-09T09:56:48.144Z,3860.00
2017-10-09T09:57:48.119Z,4128.00
2017-10-09T09:58:48.098Z,4476.00
2017-10-09T09:59:48.091Z,4468.00
2017-10-09T10:00:48.070Z,5392.00
2017-10-09T10:01:48.054Z,6008.00
2017-10-09T10:02:48.036Z,7084.00
2017-10-09T10:03:48.026Z,8180.00
2017-10-09T10:04:48.023Z,11456.00
2017-10-09T10:05:47.991Z,76000.00
2017-10-09T10:06:47.990Z,76736.00
2017-10-09T10:07:48.032Z,79712.00
2017-10-09T10:08:47.956Z,81888.00
2017-10-09T10:09:47.935Z,80512.00
2017-10-09T10:10:47.918Z,80000.00
2017-10-09T10:11:47.902Z,70432.00
2017-10-09T10:12:47.937Z,82272.00
2017-10-09T10:13:47.888Z,80128.00
2017-10-09T10:14:47.883Z,81312.00
2017-10-09T10:15:47.866Z,62560.00
2017-10-09T10:16:47.848Z,73472.00
2017-10-09T10:17:47.837Z,25824.00
2017-10-09T10:18:47.831Z,21248.00
2017-10-09T10:19:47.810Z,16224.00
2017-10-09T10:20:47.818Z,18240.00
2017-10-09T10:21:47.811Z,75968.00
2017-10-09T10:22:47.787Z,64960.00
2017-10-09T10:23:47.791Z,65920.00
2017-10-09T10:24:47.778Z,23168.00
2017-10-09T10:25:47.762Z,12908.00
2017-10-09T10:26:49.154Z,10024.00
2017-10-09T10:27:47.746Z,8552.00
2017-10-09T10:28:47.745Z,7412.00
2017-10-09T10:29:47.739Z,7760.00
2017-10-09T10:30:47.736Z,8848.00
2017-10-09T10:31:47.705Z,10208.00
2017-10-09T10:32:47.700Z,26240.00
2017-10-09T10:33:47.701Z,66400.00
2017-10-09T10:34:47.711Z,26688.00
2017-10-09T10:35:47.665Z,10464.00
2017-10-09T10:36:47.669Z,9032.00
2017-10-09T10:37:47.652Z,7676.00
2017-10-09T10:38:47.631Z,6804.00
2017-10-09T10:39:47.635Z,6640.00
2017-10-09T10:40:47.649Z,6996.00
2017-10-09T10:41:47.607Z,8580.00
2017-10-09T10:42:47.605Z,9404.00
2017-10-09T10:43:47.580Z,9220.00
2017-10-09T10:44:47.581Z,10016.00
2017-10-09T10:45:47.557Z,10692.00
2017-10-09T10:46:47.545Z,10588.00
2017-10-09T10:47:47.530Z,11428.00
2017-10-09T10:48:47.519Z,13156.00
2017-10-09T10:49:47.513Z,15552.00
2017-10-09T10:50:47.494Z,26400.00
2017-10-09T10:51:47.516Z,23328.00
2017-10-09T10:52:47.461Z,24384.00
2017-10-09T10:53:47.450Z,23680.00
2017-10-09T10:54:47.434Z,22816.00
2017-10-09T10:55:47.428Z,23840.00
2017-10-09T10:56:47.412Z,31168.00
2017-10-09T10:57:47.404Z,31744.00
2017-10-09T10:58:47.391Z,25888.00
2017-10-09T10:59:47.368Z,27968.00
2017-10-09T11:00:47.359Z,28416.00
2017-10-09T11:01:47.341Z,24768.00
2017-10-09T11:02:47.333Z,21696.00
2017-10-09T11:03:47.325Z,18368.00
2017-10-09T11:04:47.306Z,18528.00
2017-10-09T11:05:47.288Z,20192.00
2017-10-09T11:06:47.278Z,23744.00
2017-10-09T11:07:47.261Z,20640.00
2017-10-09T11:08:47.252Z,18080.00
2017-10-09T11:09:47.257Z,16960.00
2017-10-09T11:10:47.221Z,16192.00
2017-10-09T11:11:47.213Z,15808.00
2017-10-09T11:12:47.206Z,15776.00
2017-10-09T11:13:47.192Z,15424.00
2017-10-09T11:14:47.175Z,16672.00
2017-10-09T11:15:47.176Z,15712.00
2017-10-09T11:16:47.182Z,13632.00
2017-10-09T11:17:47.146Z,13996.00
2017-10-09T11:18:47.135Z,13292.00
2017-10-09T11:19:47.127Z,16704.00
2017-10-09T11:20:47.112Z,17376.00
2017-10-09T11:21:47.135Z,18400.00
2017-10-09T11:22:47.097Z,17344.00
2017-10-09T11:23:47.082Z,17248.00
2017-10-09T11:24:47.070Z,16832.00
2017-10-09T11:25:47.066Z,16832.00
2017-10-09T11:26:47.060Z,17632.00
2017-10-09T11:27:47.058Z,17824.00
2017-10-09T11:28:47.038Z,17792.00
2017-10-09T11:29:47.032Z,16352.00
2017-10-09T11:30:47.028Z,16928.00
2017-10-09T11:31:47.027Z,14300.00
2017-10-09T11:32:47.002Z,14904.00
2017-10-09T11:33:47.008Z,14352.00
2017-10-09T11:34:46.982Z,17024.00
2017-10-09T11:35:46.977Z,17344.00
2017-10-09T11:36:46.957Z,15680.00
2017-10-09T11:37:46.953Z,14100.00
2017-10-09T11:38:46.938Z,12692.00
2017-10-09T11:39:46.931Z,12036.00
2017-10-09T11:40:46.960Z,12164.00
2017-10-09T11:41:46.906Z,12944.00
2017-10-09T11:42:46.896Z,16064.00
2017-10-09T11:43:46.906Z,13884.00
2017-10-09T11:44:46.895Z,11432.00
2017-10-09T11:45:46.863Z,9804.00
2017-10-09T11:46:46.855Z,9184.00
2017-10-09T11:47:46.840Z,9276.00
2017-10-09T11:48:46.838Z,8040.00
2017-10-09T11:49:46.822Z,9228.00
2017-10-09T11:50:46.822Z,8496.00
2017-10-09T11:51:46.793Z,9152.00
2017-10-09T11:52:46.792Z,9556.00
2017-10-09T11:53:46.779Z,7884.00
2017-10-09T11:54:46.765Z,8672.00
2017-10-09T11:55:46.758Z,9724.00
2017-10-09T11:56:46.744Z,10384.00
2017-10-09T11:57:46.728Z,11368.00
2017-10-09T11:58:46.738Z,11524.00
2017-10-09T11:59:46.733Z,12008.00
2017-10-09T12:00:46.707Z,10672.00
2017-10-09T12:01:46.680Z,8968.00
2017-10-09T12:02:46.674Z,8808.00
2017-10-09T12:03:46.661Z,9096.00
2017-10-09T12:04:46.655Z,10100.00
2017-10-09T12:05:46.648Z,11180.00
2017-10-09T12:06:46.628Z,13116.00
2017-10-09T12:07:46.611Z,14348.00
2017-10-09T12:08:46.607Z,12444.00
2017-10-09T12:09:46.586Z,12252.00
2017-10-09T12:10:46.602Z,11640.00
2017-10-09T12:11:46.560Z,11356.00
2017-10-09T12:12:46.563Z,10308.00
2017-10-09T12:13:46.546Z,9736.00
2017-10-09T12:14:46.533Z,9092.00
2017-10-09T12:15:46.517Z,8744.00
2017-10-09T12:16:46.526Z,8484.00
2017-10-09T12:17:46.492Z,8272.00
2017-10-09T12:18:46.477Z,8784.00
2017-10-09T12:19:46.467Z,8816.00
2017-10-09T12:20:46.453Z,8856.00
2017-10-09T12:21:46.434Z,8480.00
2017-10-09T12:22:46.438Z,8276.00
2017-10-09T12:23:46.408Z,8476.00
2017-10-09T12:24:46.396Z,8392.00
2017-10-09T12:25:46.375Z,8120.00
2017-10-09T12:26:46.382Z,7800.00
2017-10-09T12:27:46.359Z,7568.00
2017-10-09T12:28:46.348Z,7400.00
2017-10-09T12:29:46.322Z,7472.00
2017-10-09T12:30:46.321Z,7356.00